Main page
METAR-TAF:

METAR-TAF

Airports :

Laupheim Air Base

Laupheim, Germany

latitude: 48-13N, longitude: 009-55E, elevation: 538 m

Current weather observation

The report was made 46 minutes ago, at 13:20 UTC
Wind 7 kt from the West with gusts up to 17 kt
Temperature 17°C
Humidity 36%
Pressure 1022 hPa
Visibility 10 km or more
Few clouds at a height of 4500 ft
Broken clouds at a height of 22000 ft

METAR: ETHL 221320Z 28007G17KT 9999 FEW045 BKN220 17/02 Q1022 BLU+

Time: 16:06 (14:06 UTC)


TAF: missing

Weather observations and forecasts of more than 4000 airports (METAR and TAF reports).

The available stations are represented by yellow and red dots on the map.

Hover mouse over dot to see the name of the station.

Then click to see weather observations and forecasts.

To change the map : click on the green buttons with a black cross to zoom in, on the green button with a dash to zoom out, or on the green arrows for adjacent maps.


METAR-TAF: